Time;durP1;ratioP1;P1;durP2;ratioP2;P2;SDS_P1;SDS_P2;PMS_P1;PMS_P2;Temp;Humidity;BMP_temperature;BMP_pressure;BME280_temperature;BME280_humidity;BME280_pressure;Samples;Min_cycle;Max_cycle;Signal;HPM_P1;HPM_P2
2023/04/05 00:02:01;;;;;;;47.50;25.90;;;;;;;-3.89;70.47;101150.08;103543;280;38538;-69
2023/04/05 00:04:37;;;;;;;43.10;23.20;;;;;;;-3.92;70.62;101148.09;103655;280;38486;-70
2023/04/05 00:07:11;;;;;;;41.60;24.20;;;;;;;-3.96;70.70;101149.84;103674;280;38243;-72
2023/04/05 00:09:45;;;;;;;43.60;23.70;;;;;;;-3.98;70.74;101148.07;103640;280;38625;-70
2023/04/05 00:12:19;;;;;;;43.30;24.80;;;;;;;-3.98;70.77;101148.05;103664;279;38422;-70
2023/04/05 00:14:53;;;;;;;42.30;24.20;;;;;;;-3.98;70.80;101141.58;103579;280;39729;-68
2023/04/05 00:17:28;;;;;;;43.50;24.60;;;;;;;-4.01;71.09;101138.92;103640;279;40148;-72
2023/04/05 00:20:06;;;;;;;44.90;24.00;;;;;;;-4.05;71.16;101141.35;103652;280;38996;-72
2023/04/05 00:22:43;;;;;;;44.00;24.50;;;;;;;-4.06;71.31;101142.50;103545;280;38394;-72
2023/04/05 00:25:17;;;;;;;46.20;24.10;;;;;;;-4.09;71.32;101136.60;103646;268;38824;-69
2023/04/05 00:27:51;;;;;;;41.20;23.40;;;;;;;-4.11;71.63;101137.05;103695;280;38535;-72
2023/04/05 00:30:27;;;;;;;38.20;22.50;;;;;;;-4.12;71.65;101132.09;103678;280;38512;-70
2023/04/05 00:33:04;;;;;;;39.10;21.80;;;;;;;-4.11;71.67;101125.48;103659;280;38506;-71
2023/04/05 00:35:38;;;;;;;37.00;22.90;;;;;;;-4.10;71.57;101123.27;103626;280;38259;-68
2023/04/05 00:38:12;;;;;;;40.70;22.30;;;;;;;-4.11;71.67;101119.15;103624;280;38313;-71
2023/04/05 00:40:46;;;;;;;39.00;23.40;;;;;;;-4.13;71.79;101119.27;103692;280;39453;-69
2023/04/05 00:43:20;;;;;;;39.10;22.20;;;;;;;-4.16;71.87;101113.71;103634;280;39175;-71
2023/04/05 00:45:55;;;;;;;41.00;23.20;;;;;;;-4.20;71.79;101113.95;103702;280;38847;-70
2023/04/05 00:48:29;;;;;;;41.70;22.80;;;;;;;-4.23;71.87;101110.59;103660;280;39681;-69
2023/04/05 00:51:08;;;;;;;39.70;22.10;;;;;;;-4.30;71.86;101115.64;103661;280;38557;-70
2023/04/05 00:53:43;;;;;;;34.70;20.90;;;;;;;-4.37;71.91;101115.05;103571;281;38961;-69
2023/04/05 00:56:20;;;;;;;40.70;21.10;;;;;;;-4.39;72.05;101113.96;103587;280;39571;-70
2023/04/05 00:58:54;;;;;;;41.90;22.80;;;;;;;-4.36;72.23;101110.15;103685;280;38840;-70
2023/04/05 01:01:29;;;;;;;41.20;23.30;;;;;;;-4.31;72.29;101113.55;103547;269;38359;-71
2023/04/05 01:04:06;;;;;;;40.20;22.80;;;;;;;-4.28;72.30;101107.88;103711;280;38827;-71
2023/04/05 01:06:53;;;;;;;41.40;22.20;;;;;;;-4.28;72.31;101104.63;103555;281;38699;-68
2023/04/05 01:09:37;;;;;;;39.10;22.60;;;;;;;-4.32;72.32;101098.88;103633;280;40142;-69
2023/04/05 01:12:12;;;;;;;44.60;25.00;;;;;;;-4.37;72.25;101098.89;103674;280;38679;-69
2023/04/05 01:14:51;;;;;;;42.40;22.60;;;;;;;-4.41;72.28;101096.69;103669;280;38543;-69
2023/04/05 01:17:27;;;;;;;43.30;23.00;;;;;;;-4.47;72.29;101093.08;103549;280;176157;-69
2023/04/05 01:20:07;;;;;;;44.60;23.30;;;;;;;-4.53;72.42;101097.30;103474;281;173431;-71
2023/04/05 01:23:17;;;;;;;41.30;21.70;;;;;;;-4.56;72.49;101096.01;103589;280;39461;-67
2023/04/05 01:26:36;;;;;;;40.10;22.50;;;;;;;-4.59;72.54;101094.86;103499;280;39449;-69
2023/04/05 01:29:52;;;;;;;43.30;23.00;;;;;;;-4.61;72.76;101090.89;103582;280;38394;-71
2023/04/05 01:32:49;;;;;;;40.70;22.30;;;;;;;-4.66;72.79;101091.91;103562;280;38409;-71
2023/04/05 01:35:28;;;;;;;44.50;23.20;;;;;;;-4.72;72.83;101094.60;102998;281;754275;-69
2023/04/05 01:38:05;;;;;;;41.60;23.10;;;;;;;-4.75;72.99;101095.67;103539;280;38274;-69
2023/04/05 01:40:40;;;;;;;44.90;25.10;;;;;;;-4.81;73.04;101092.39;103583;277;38435;-70
2023/04/05 01:43:18;;;;;;;36.60;22.30;;;;;;;-4.85;72.95;101095.15;103571;280;38229;-69
2023/04/05 01:45:52;;;;;;;34.40;20.00;;;;;;;-4.86;73.15;101095.27;103574;280;38278;-69
2023/04/05 01:48:26;;;;;;;36.60;20.60;;;;;;;-4.86;73.28;101097.85;103604;280;38609;-71
2023/04/05 01:51:00;;;;;;;38.00;22.70;;;;;;;-4.83;73.37;101096.42;103607;280;38375;-72
2023/04/05 01:53:34;;;;;;;35.20;20.70;;;;;;;-4.81;73.50;101095.29;103415;280;40170;-73
2023/04/05 01:56:09;;;;;;;44.80;22.70;;;;;;;-4.82;73.65;101097.14;103590;280;38475;-70
2023/04/05 01:58:48;;;;;;;39.60;23.20;;;;;;;-4.85;73.57;101097.36;103561;280;38514;-70
2023/04/05 02:01:23;;;;;;;38.10;22.50;;;;;;;-4.90;73.77;101100.92;103588;280;38277;-69
2023/04/05 02:03:57;;;;;;;38.10;20.90;;;;;;;-4.97;73.79;101091.67;103657;280;38251;-70
2023/04/05 02:06:32;;;;;;;38.40;20.80;;;;;;;-5.01;73.84;101090.83;103517;282;38861;-70
2023/04/05 02:09:06;;;;;;;35.80;20.70;;;;;;;-5.04;74.05;101091.59;103659;280;38433;-68
2023/04/05 02:11:40;;;;;;;36.60;20.90;;;;;;;-5.04;74.07;101093.44;103668;280;38332;-70
2023/04/05 02:14:14;;;;;;;34.60;19.50;;;;;;;-5.06;74.03;101094.38;103678;280;38407;-72
2023/04/05 02:16:48;;;;;;;38.10;20.90;;;;;;;-5.08;74.38;101094.49;103692;280;38779;-69
2023/04/05 02:19:23;;;;;;;35.70;22.00;;;;;;;-5.11;74.37;101091.98;103678;280;38488;-69
2023/04/05 02:21:57;;;;;;;37.70;21.50;;;;;;;-5.13;74.38;101097.70;103687;280;39183;-67
2023/04/05 02:24:35;;;;;;;33.30;20.40;;;;;;;-5.15;74.30;101098.82;103601;280;38542;-70
2023/04/05 02:27:10;;;;;;;33.90;20.00;;;;;;;-5.19;74.37;101102.58;103666;280;38374;-69
2023/04/05 02:29:44;;;;;;;36.20;20.80;;;;;;;-5.24;74.45;101102.92;103654;280;38606;-69
2023/04/05 02:32:17;;;;;;;34.50;19.10;;;;;;;-5.26;74.85;101104.02;103671;280;39479;-70
2023/04/05 02:34:52;;;;;;;35.00;19.30;;;;;;;-5.25;74.64;101102.17;103627;280;39203;-70
2023/04/05 02:37:26;;;;;;;30.30;18.20;;;;;;;-5.24;74.77;101104.78;103679;280;39674;-70
2023/04/05 02:40:00;;;;;;;34.10;20.90;;;;;;;-5.22;75.03;101103.52;103642;280;38242;-70
2023/04/05 02:42:35;;;;;;;35.60;19.90;;;;;;;-5.18;75.38;101099.20;103677;280;38285;-68
2023/04/05 02:45:11;;;;;;;36.10;20.50;;;;;;;-5.13;75.62;101101.09;103674;280;38841;-69
2023/04/05 02:47:45;;;;;;;32.30;19.50;;;;;;;-5.11;75.68;101099.48;103660;280;38636;-71
2023/04/05 02:50:22;;;;;;;35.20;20.10;;;;;;;-5.09;75.78;101098.17;103661;280;38441;-70
2023/04/05 02:52:56;;;;;;;37.10;20.30;;;;;;;-5.06;75.61;101096.27;103673;280;38863;-70
2023/04/05 02:55:29;;;;;;;36.00;19.70;;;;;;;-5.00;75.80;101095.45;103668;280;39158;-74
2023/04/05 02:58:04;;;;;;;33.00;19.80;;;;;;;-4.95;75.89;101094.98;103625;280;38352;-72
2023/04/05 03:00:40;;;;;;;35.20;19.40;;;;;;;-4.90;75.95;101095.66;103691;280;38453;-69
2023/04/05 03:03:17;;;;;;;34.10;18.70;;;;;;;-4.85;76.11;101093.61;103641;280;38817;-69
2023/04/05 03:05:58;;;;;;;38.40;19.80;;;;;;;-4.81;76.58;101093.40;103714;273;39622;-70
2023/04/05 03:08:31;;;;;;;35.40;19.30;;;;;;;-4.80;76.51;101093.98;103672;268;39878;-69
2023/04/05 03:11:06;;;;;;;37.10;19.60;;;;;;;-4.80;76.37;101092.95;103687;269;39149;-70
2023/04/05 03:13:41;;;;;;;36.80;20.00;;;;;;;-4.80;76.45;101093.30;103652;280;39647;-70
2023/04/05 03:16:15;;;;;;;31.70;19.70;;;;;;;-4.77;76.47;101096.66;103648;280;38356;-72
2023/04/05 03:18:49;;;;;;;32.50;19.20;;;;;;;-4.74;76.45;101095.87;103627;280;38732;-72
2023/04/05 03:21:23;;;;;;;33.50;20.10;;;;;;;-4.70;76.69;101096.02;103660;279;38261;-70
2023/04/05 03:24:03;;;;;;;32.30;19.60;;;;;;;-4.65;77.00;101091.58;103686;280;38255;-70
2023/04/05 03:26:43;;;;;;;35.80;22.00;;;;;;;-4.61;77.21;101095.32;103671;280;38270;-68
2023/04/05 03:29:17;;;;;;;33.30;20.20;;;;;;;-4.58;77.36;101091.48;103638;280;39420;-70
2023/04/05 03:31:58;;;;;;;33.80;19.70;;;;;;;-4.53;77.39;101089.47;103670;280;39046;-67
2023/04/05 03:34:38;;;;;;;34.90;19.60;;;;;;;-4.46;77.38;101091.92;103629;280;38799;-67
2023/04/05 03:37:14;;;;;;;29.80;18.90;;;;;;;-4.39;77.54;101091.65;103675;280;38444;-70
2023/04/05 03:39:49;;;;;;;31.10;19.30;;;;;;;-4.30;77.60;101092.79;103717;280;38513;-71
2023/04/05 03:42:23;;;;;;;34.80;19.70;;;;;;;-4.21;77.80;101094.14;103692;280;38709;-71
2023/04/05 03:44:58;;;;;;;36.20;21.20;;;;;;;-4.12;77.79;101091.36;103640;280;39840;-70
2023/04/05 03:47:32;;;;;;;33.10;19.90;;;;;;;-4.05;78.06;101091.91;103575;280;38483;-72
2023/04/05 03:50:09;;;;;;;32.70;20.50;;;;;;;-4.00;77.81;101091.08;103636;281;39272;-71
2023/04/05 03:52:44;;;;;;;32.80;20.30;;;;;;;-3.93;77.57;101088.92;103689;280;38777;-66
2023/04/05 03:55:21;;;;;;;31.20;18.70;;;;;;;-3.85;77.38;101085.08;103671;280;38294;-69
2023/04/05 03:57:57;;;;;;;30.50;19.10;;;;;;;-3.77;77.31;101085.16;103530;280;176150;-71
2023/04/05 04:00:32;;;;;;;31.20;19.40;;;;;;;-3.70;77.69;101085.71;103715;280;38960;-70
2023/04/05 04:03:06;;;;;;;33.80;19.60;;;;;;;-3.62;77.57;101085.95;103613;280;38233;-69
2023/04/05 04:05:40;;;;;;;32.90;18.90;;;;;;;-3.53;77.59;101087.94;103699;280;39712;-70
2023/04/05 04:08:14;;;;;;;32.30;20.00;;;;;;;-3.45;77.94;101087.52;103711;280;38916;-70
2023/04/05 04:10:48;;;;;;;34.30;19.80;;;;;;;-3.40;78.15;101090.21;103582;280;38288;-69
2023/04/05 04:13:22;;;;;;;33.70;18.80;;;;;;;-3.35;77.85;101093.45;103659;280;38673;-70
2023/04/05 04:15:56;;;;;;;30.50;19.20;;;;;;;-3.29;77.51;101088.85;103688;280;38289;-72
2023/04/05 04:18:30;;;;;;;33.50;19.30;;;;;;;-3.24;77.53;101089.01;103645;280;38417;-70
2023/04/05 04:21:07;;;;;;;39.10;20.10;;;;;;;-3.14;77.71;101094.23;103637;280;38630;-68
2023/04/05 04:23:44;;;;;;;34.50;20.40;;;;;;;-3.06;77.93;101095.30;103649;280;38698;-70
2023/04/05 04:26:25;;;;;;;34.80;20.50;;;;;;;-2.99;77.83;101092.95;103677;280;39421;-68
2023/04/05 04:29:05;;;;;;;35.60;20.60;;;;;;;-2.95;77.56;101095.83;103656;280;39289;-68
2023/04/05 04:31:39;;;;;;;34.80;19.90;;;;;;;-2.92;77.53;101100.31;103724;280;38354;-69
2023/04/05 04:34:13;;;;;;;33.20;19.40;;;;;;;-2.89;77.82;101102.13;103655;280;38409;-70
2023/04/05 04:36:59;;;;;;;41.30;20.90;;;;;;;-2.82;77.81;101103.33;103677;280;39949;-70
2023/04/05 04:39:33;;;;;;;38.60;22.20;;;;;;;-2.74;77.90;101105.61;103695;280;38934;-70
2023/04/05 04:42:09;;;;;;;43.60;23.00;;;;;;;-2.66;77.82;101106.17;103683;280;38610;-69
2023/04/05 04:44:45;;;;;;;44.90;22.60;;;;;;;-2.61;77.93;101103.06;103635;280;38994;-67
2023/04/05 04:47:26;;;;;;;38.50;21.80;;;;;;;-2.58;77.85;101102.97;103680;280;38821;-67
2023/04/05 04:50:06;;;;;;;42.80;22.50;;;;;;;-2.54;77.77;101096.59;103663;280;38331;-69
2023/04/05 04:52:40;;;;;;;37.50;21.20;;;;;;;-2.51;77.97;101098.21;103662;280;39407;-70
2023/04/05 04:55:14;;;;;;;37.40;20.30;;;;;;;-2.46;78.04;101097.84;103670;280;38483;-70
2023/04/05 04:57:48;;;;;;;39.30;20.20;;;;;;;-2.40;78.06;101094.24;103671;280;38746;-70
2023/04/05 05:00:25;;;;;;;40.30;21.00;;;;;;;-2.33;78.06;101096.63;103667;280;38726;-69
2023/04/05 05:03:00;;;;;;;35.90;20.40;;;;;;;-2.25;77.81;101098.21;103590;281;38419;-72
2023/04/05 05:05:34;;;;;;;39.40;22.20;;;;;;;-2.18;77.91;101095.29;103698;280;38833;-69
2023/04/05 05:08:08;;;;;;;35.00;20.60;;;;;;;-2.15;78.09;101100.86;103666;280;38475;-69
2023/04/05 05:10:47;;;;;;;38.10;22.00;;;;;;;-2.11;77.96;101103.02;103517;280;173303;-69
2023/04/05 05:13:26;;;;;;;41.90;22.80;;;;;;;-2.10;77.67;101106.29;103687;280;39643;-68
2023/04/05 05:16:00;;;;;;;38.70;21.30;;;;;;;-2.08;77.77;101105.13;103672;280;38545;-70
2023/04/05 05:18:35;;;;;;;36.70;20.70;;;;;;;-2.02;77.77;101108.50;103666;280;38573;-69
2023/04/05 05:21:09;;;;;;;36.00;20.10;;;;;;;-1.96;77.72;101104.08;103651;280;39565;-69
2023/04/05 05:23:43;;;;;;;37.50;20.70;;;;;;;-1.88;77.63;101105.97;103648;280;38546;-67
2023/04/05 05:26:18;;;;;;;39.20;21.80;;;;;;;-1.82;77.39;101108.17;103634;280;38678;-71
2023/04/05 05:28:52;;;;;;;45.20;23.10;;;;;;;-1.78;77.53;101106.37;103653;280;38838;-71
2023/04/05 05:31:35;;;;;;;41.20;23.10;;;;;;;-1.74;77.43;101111.25;103640;280;38753;-67
2023/04/05 05:34:16;;;;;;;49.70;25.70;;;;;;;-1.71;77.48;101112.71;103641;280;38247;-67
2023/04/05 05:36:50;;;;;;;52.00;24.90;;;;;;;-1.70;77.47;101110.85;103668;280;37997;-70
2023/04/05 05:39:24;;;;;;;45.20;23.10;;;;;;;-1.65;77.38;101113.70;103656;280;39415;-70
2023/04/05 05:41:58;;;;;;;51.60;23.90;;;;;;;-1.59;77.45;101118.45;103692;280;39697;-69
2023/04/05 05:44:32;;;;;;;42.80;23.30;;;;;;;-1.51;77.38;101121.70;103642;280;38522;-70
2023/04/05 05:47:06;;;;;;;42.00;23.50;;;;;;;-1.46;77.31;101124.42;103645;269;38595;-72
2023/04/05 05:49:41;;;;;;;42.90;23.80;;;;;;;-1.39;77.30;101127.47;103624;280;39709;-69
2023/04/05 05:52:15;;;;;;;39.90;22.40;;;;;;;-1.35;77.26;101129.11;103692;280;38636;-71
2023/04/05 05:54:49;;;;;;;40.50;23.60;;;;;;;-1.33;76.88;101131.21;103685;280;38616;-70
2023/04/05 05:57:23;;;;;;;39.40;22.30;;;;;;;-1.32;76.85;101129.19;103667;280;39723;-70
2023/04/05 05:59:57;;;;;;;37.40;21.10;;;;;;;-1.29;76.93;101132.15;103643;280;38266;-70
2023/04/05 06:02:31;;;;;;;36.20;21.10;;;;;;;-1.22;76.79;101132.13;103516;280;39051;-69
2023/04/05 06:05:07;;;;;;;40.30;21.50;;;;;;;-1.14;76.65;101137.29;103653;280;38472;-70
2023/04/05 06:07:45;;;;;;;39.90;22.60;;;;;;;-1.06;76.57;101138.64;103664;280;38580;-70
2023/04/05 06:10:19;;;;;;;42.10;23.20;;;;;;;-1.00;76.33;101134.65;103662;280;38260;-70
2023/04/05 06:12:53;;;;;;;38.60;22.00;;;;;;;-0.97;76.31;101133.88;103658;280;39418;-68
2023/04/05 06:15:27;;;;;;;39.70;22.00;;;;;;;-0.94;76.24;101134.79;103675;280;38284;-70
2023/04/05 06:18:02;;;;;;;42.10;22.00;;;;;;;-0.91;76.13;101132.98;103631;280;38255;-69
2023/04/05 06:20:39;;;;;;;37.30;19.70;;;;;;;-0.84;76.14;101133.27;103663;280;39319;-71
2023/04/05 06:23:14;;;;;;;47.70;22.60;;;;;;;-0.80;76.23;101134.39;103671;280;38287;-72
2023/04/05 06:25:48;;;;;;;44.50;21.60;;;;;;;-0.75;75.99;101135.69;103694;280;38260;-71
2023/04/05 06:28:22;;;;;;;38.60;21.00;;;;;;;-0.70;75.72;101138.52;103651;279;38572;-70
2023/04/05 06:30:58;;;;;;;41.60;20.60;;;;;;;-0.64;75.55;101139.17;103693;280;38559;-71
2023/04/05 06:33:32;;;;;;;41.70;20.90;;;;;;;-0.56;75.54;101137.79;103652;280;39456;-69
2023/04/05 06:36:07;;;;;;;35.90;20.00;;;;;;;-0.50;75.39;101141.33;103693;280;39301;-69
2023/04/05 06:38:41;;;;;;;41.60;20.90;;;;;;;-0.44;75.34;101141.45;103692;280;38285;-69
2023/04/05 06:41:16;;;;;;;35.00;19.60;;;;;;;-0.41;75.11;101147.15;103701;280;38807;-71
2023/04/05 06:43:50;;;;;;;38.10;18.80;;;;;;;-0.37;74.94;101148.95;103655;280;38218;-70
2023/04/05 06:46:26;;;;;;;35.20;18.60;;;;;;;-0.33;74.78;101148.70;103614;280;38504;-72
2023/04/05 06:49:04;;;;;;;39.70;18.80;;;;;;;-0.30;74.75;101146.00;103661;280;38830;-69
2023/04/05 06:51:38;;;;;;;32.90;16.50;;;;;;;-0.23;74.66;101148.02;103650;280;38368;-69
2023/04/05 06:54:20;;;;;;;32.60;17.10;;;;;;;-0.15;74.59;101154.84;103655;280;39490;-68
2023/04/05 06:56:55;;;;;;;33.60;20.00;;;;;;;-0.09;74.40;101151.36;103664;280;38778;-69
2023/04/05 06:59:31;;;;;;;40.10;20.60;;;;;;;-0.04;74.52;101149.73;103704;280;38506;-67
2023/04/05 07:02:06;;;;;;;42.10;22.20;;;;;;;-0.01;74.33;101151.32;103687;280;39439;-71
2023/04/05 07:04:40;;;;;;;42.80;22.60;;;;;;;0.02;74.04;101149.49;103629;280;38730;-70
2023/04/05 07:07:16;;;;;;;41.00;23.00;;;;;;;0.02;73.84;101149.33;103664;280;39831;-71
2023/04/05 07:09:51;;;;;;;46.70;25.00;;;;;;;0.03;73.61;101150.35;103675;280;38526;-73
2023/04/05 07:12:26;;;;;;;44.60;23.30;;;;;;;0.03;73.44;101152.59;103681;280;38546;-70
2023/04/05 07:15:01;;;;;;;41.30;21.80;;;;;;;0.04;73.62;101153.80;103656;277;38211;-72
2023/04/05 07:17:35;;;;;;;34.20;19.40;;;;;;;0.07;73.62;101150.09;103678;269;38240;-71
2023/04/05 07:20:13;;;;;;;33.90;18.60;;;;;;;0.11;73.63;101155.32;103661;280;38305;-71
2023/04/05 07:22:47;;;;;;;32.80;16.70;;;;;;;0.18;73.53;101152.67;103661;280;39539;-71
2023/04/05 07:25:22;;;;;;;25.80;14.70;;;;;;;0.24;73.40;101151.25;103667;280;38256;-69
2023/04/05 07:28:00;;;;;;;28.40;15.70;;;;;;;0.29;73.37;101153.20;103655;280;38784;-69
2023/04/05 07:30:35;;;;;;;24.40;14.20;;;;;;;0.36;73.07;101153.16;103684;280;39477;-69
2023/04/05 07:33:09;;;;;;;27.50;15.00;;;;;;;0.41;72.95;101155.48;103672;280;38499;-68
2023/04/05 07:35:44;;;;;;;28.50;14.60;;;;;;;0.42;72.69;101154.63;103645;280;39454;-69
2023/04/05 07:38:18;;;;;;;24.30;13.70;;;;;;;0.46;72.78;101154.85;103682;280;38794;-71
2023/04/05 07:40:53;;;;;;;28.40;15.00;;;;;;;0.49;72.62;101153.54;103655;280;38255;-71
2023/04/05 07:43:27;;;;;;;26.50;14.40;;;;;;;0.52;72.37;101154.26;103662;280;39975;-69
2023/04/05 07:46:06;;;;;;;29.10;16.20;;;;;;;0.58;72.32;101156.74;103692;280;38577;-70
2023/04/05 07:48:41;;;;;;;26.30;14.90;;;;;;;0.63;72.16;101159.23;103691;280;38283;-70
2023/04/05 07:51:15;;;;;;;24.80;13.70;;;;;;;0.69;71.96;101162.43;103640;280;38519;-73
2023/04/05 07:53:49;;;;;;;23.80;13.60;;;;;;;0.74;71.73;101159.59;103623;280;38247;-72
2023/04/05 07:56:23;;;;;;;28.40;14.70;;;;;;;0.77;71.59;101160.98;103670;280;38250;-71
2023/04/05 07:58:57;;;;;;;24.90;13.30;;;;;;;0.82;71.58;101161.74;103640;280;38593;-73
2023/04/05 08:01:31;;;;;;;21.80;11.70;;;;;;;0.86;71.37;101164.55;103683;280;39051;-69
2023/04/05 08:04:05;;;;;;;19.40;11.50;;;;;;;0.90;71.00;101162.89;103656;276;38585;-69
2023/04/05 08:06:39;;;;;;;18.20;10.80;;;;;;;0.93;71.08;101162.59;103651;280;38317;-68
2023/04/05 08:09:14;;;;;;;20.60;11.60;;;;;;;0.96;70.73;101156.96;103656;280;39450;-69
2023/04/05 08:11:47;;;;;;;19.00;11.60;;;;;;;0.98;70.63;101159.39;103701;280;39753;-71
2023/04/05 08:14:21;;;;;;;16.90;9.40;;;;;;;1.02;70.53;101160.48;103640;280;38301;-72
2023/04/05 08:16:55;;;;;;;16.20;9.00;;;;;;;1.08;70.39;101162.63;103641;280;38318;-73
2023/04/05 08:19:30;;;;;;;20.10;10.00;;;;;;;1.16;70.16;101162.38;103547;280;38636;-71
2023/04/05 08:22:04;;;;;;;20.70;11.60;;;;;;;1.24;70.19;101161.64;103672;280;38377;-70
2023/04/05 08:24:38;;;;;;;21.10;10.60;;;;;;;1.31;69.76;101163.61;103519;280;189596;-72
2023/04/05 08:27:13;;;;;;;18.00;10.80;;;;;;;1.36;69.89;101162.64;103682;279;39010;-69
2023/04/05 08:29:51;;;;;;;19.30;11.10;;;;;;;1.45;69.91;101158.80;103658;280;38567;-68
2023/04/05 08:32:30;;;;;;;18.20;9.20;;;;;;;1.55;69.91;101164.41;103661;280;38678;-68
2023/04/05 08:35:06;;;;;;;17.10;10.00;;;;;;;1.63;69.89;101161.41;103626;280;39272;-69
2023/04/05 08:37:41;;;;;;;15.50;9.70;;;;;;;1.70;69.71;101158.05;103670;280;38407;-70
2023/04/05 08:40:17;;;;;;;16.70;9.30;;;;;;;1.78;69.39;101157.27;103683;280;38409;-69
2023/04/05 08:43:02;;;;;;;14.40;8.90;;;;;;;1.86;69.15;101159.41;103657;280;39446;-69
2023/04/05 08:45:36;;;;;;;16.80;9.40;;;;;;;1.96;69.01;101157.29;103645;280;39680;-70
2023/04/05 08:48:10;;;;;;;16.00;9.70;;;;;;;2.05;68.93;101157.20;103621;280;39477;-72
2023/04/05 08:50:44;;;;;;;15.00;8.40;;;;;;;2.14;68.75;101155.38;103662;280;39439;-71
2023/04/05 08:53:18;;;;;;;15.20;8.50;;;;;;;2.23;68.51;101151.16;103665;280;39405;-71
2023/04/05 08:55:55;;;;;;;13.90;8.50;;;;;;;2.34;68.42;101154.35;103647;280;38452;-71
2023/04/05 08:58:29;;;;;;;13.60;7.30;;;;;;;2.45;67.81;101154.27;103658;280;38293;-69
2023/04/05 09:01:03;;;;;;;10.60;6.40;;;;;;;2.53;67.42;101151.75;103661;280;38510;-69
2023/04/05 09:03:38;;;;;;;7.70;5.30;;;;;;;2.64;66.62;101155.95;103652;280;39413;-70
2023/04/05 09:06:13;;;;;;;9.40;5.50;;;;;;;2.71;65.71;101156.35;103676;280;38639;-70
2023/04/05 09:08:47;;;;;;;10.30;6.50;;;;;;;2.80;65.52;101155.55;103608;280;39648;-69
2023/04/05 09:11:22;;;;;;;8.20;5.30;;;;;;;2.92;65.04;101153.04;103661;280;38490;-71
2023/04/05 09:13:56;;;;;;;10.10;5.40;;;;;;;3.02;64.05;101154.13;103642;303;38516;-71
2023/04/05 09:16:30;;;;;;;7.80;4.90;;;;;;;3.11;63.26;101153.30;103662;280;38821;-68
2023/04/05 09:19:04;;;;;;;6.60;3.90;;;;;;;3.20;63.06;101154.05;103689;280;38529;-68
2023/04/05 09:22:04;;;;;;;6.20;4.40;;;;;;;3.31;62.12;101158.58;103667;280;39080;-69
2023/04/05 09:24:40;;;;;;;6.60;3.50;;;;;;;3.40;60.20;101159.83;103528;280;39422;-70
2023/04/05 09:27:15;;;;;;;5.70;3.20;;;;;;;3.41;60.37;101161.71;103702;280;38278;-69
2023/04/05 09:29:49;;;;;;;8.30;3.90;;;;;;;3.51;60.02;101161.75;103543;280;39608;-69
2023/04/05 09:32:28;;;;;;;6.50;4.00;;;;;;;3.60;59.97;101157.82;103659;280;38699;-71
2023/04/05 09:35:03;;;;;;;7.20;4.50;;;;;;;3.76;59.62;101157.17;102979;281;874287;-71
2023/04/05 09:37:38;;;;;;;7.40;4.40;;;;;;;3.90;60.08;101155.83;103661;280;39447;-73
2023/04/05 09:40:14;;;;;;;8.70;4.90;;;;;;;4.08;59.92;101158.61;103661;280;39444;-71
2023/04/05 09:42:49;;;;;;;9.50;4.70;;;;;;;4.23;59.01;101154.83;103617;280;38286;-70
2023/04/05 09:45:23;;;;;;;6.80;3.80;;;;;;;4.36;58.46;101153.98;103675;280;38029;-73
2023/04/05 09:48:00;;;;;;;7.80;4.00;;;;;;;4.48;58.06;101152.59;103643;280;39524;-69
2023/04/05 09:50:34;;;;;;;7.10;3.90;;;;;;;4.64;56.98;101152.75;103690;280;38533;-71
2023/04/05 09:53:17;;;;;;;6.40;3.70;;;;;;;4.77;56.82;101152.20;103680;280;38469;-70
2023/04/05 09:55:51;;;;;;;6.70;4.20;;;;;;;4.90;56.31;101151.66;103681;280;38745;-70
2023/04/05 09:58:25;;;;;;;7.80;4.10;;;;;;;5.07;54.95;101154.73;103654;280;38974;-69
2023/04/05 10:00:59;;;;;;;7.20;4.60;;;;;;;5.21;54.80;101155.90;103604;280;39393;-69
2023/04/05 10:03:34;;;;;;;8.50;5.40;;;;;;;5.35;54.96;101151.86;103670;280;39649;-69
2023/04/05 10:06:08;;;;;;;6.30;4.50;;;;;;;5.53;54.27;101148.34;103658;280;38530;-72
2023/04/05 10:08:43;;;;;;;6.50;4.50;;;;;;;5.71;54.24;101147.37;103652;280;38538;-71
2023/04/05 10:11:17;;;;;;;5.70;4.00;;;;;;;5.89;53.48;101146.06;103691;280;38617;-70
2023/04/05 10:13:52;;;;;;;5.00;3.60;;;;;;;6.08;53.35;101144.91;103521;280;175602;-72
2023/04/05 10:16:26;;;;;;;5.10;3.70;;;;;;;6.41;52.00;101139.63;103649;280;38277;-69
2023/04/05 10:19:01;;;;;;;5.50;3.00;;;;;;;6.56;51.63;101139.67;103666;279;38872;-71
2023/04/05 10:21:37;;;;;;;7.30;3.20;;;;;;;6.72;50.80;101136.57;103671;280;38615;-70
2023/04/05 10:24:17;;;;;;;3.70;2.70;;;;;;;6.95;49.46;101130.79;103674;280;37952;-71
2023/04/05 10:26:59;;;;;;;3.90;3.30;;;;;;;7.15;49.83;101129.50;103666;280;39534;-71
2023/04/05 10:29:42;;;;;;;6.60;3.80;;;;;;;7.43;49.15;101128.65;103689;280;39589;-70
2023/04/05 10:32:27;;;;;;;6.70;3.50;;;;;;;7.61;48.86;101127.54;103697;280;39391;-71
2023/04/05 10:35:09;;;;;;;7.70;3.60;;;;;;;7.74;48.83;101124.92;103690;279;39673;-71
2023/04/05 10:37:59;;;;;;;5.10;3.90;;;;;;;8.05;49.41;101121.52;103612;280;38250;-71
2023/04/05 10:40:36;;;;;;;7.90;3.80;;;;;;;8.33;48.07;101124.01;103676;280;39459;-72
2023/04/05 10:43:24;;;;;;;4.80;3.30;;;;;;;8.50;47.67;101123.41;103648;280;38519;-68
2023/04/05 10:45:59;;;;;;;6.80;3.30;;;;;;;8.71;46.40;101118.68;103691;280;39395;-73
2023/04/05 10:48:45;;;;;;;4.00;3.00;;;;;;;8.80;46.18;101116.77;103646;280;39594;-71
2023/04/05 10:51:19;;;;;;;6.00;3.80;;;;;;;8.79;45.71;101115.06;103645;280;39801;-73
2023/04/05 10:53:53;;;;;;;4.80;3.50;;;;;;;8.71;44.34;101113.63;103683;280;38862;-73
2023/04/05 10:56:28;;;;;;;6.50;3.80;;;;;;;8.53;43.99;101109.09;103649;280;38841;-70
2023/04/05 10:59:02;;;;;;;5.70;3.80;;;;;;;8.37;44.49;101110.75;103674;280;38748;-70
2023/04/05 11:01:37;;;;;;;5.10;3.30;;;;;;;8.30;44.32;101108.08;103695;280;38624;-73
2023/04/05 11:04:15;;;;;;;6.00;4.10;;;;;;;8.25;44.01;101106.59;103476;269;39456;-72
2023/04/05 11:06:55;;;;;;;4.90;3.40;;;;;;;8.28;43.59;101112.96;103575;280;38848;-69
2023/04/05 11:09:30;;;;;;;5.10;3.30;;;;;;;8.33;43.46;101108.02;103587;280;39665;-68
2023/04/05 11:12:05;;;;;;;6.10;3.70;;;;;;;8.32;42.82;101106.30;103633;280;39563;-73
2023/04/05 11:14:43;;;;;;;5.40;4.20;;;;;;;8.23;42.47;101108.35;103601;280;38822;-72
2023/04/05 11:17:30;;;;;;;6.30;4.00;;;;;;;8.16;42.60;101109.70;103618;280;38896;-73
2023/04/05 11:20:12;;;;;;;7.10;4.10;;;;;;;8.05;42.37;101111.60;103594;280;38801;-71
2023/04/05 11:22:47;;;;;;;5.90;4.00;;;;;;;7.90;41.81;101107.84;103587;280;38937;-73
2023/04/05 11:25:27;;;;;;;6.50;4.00;;;;;;;7.86;42.00;101105.98;103619;280;39504;-72
2023/04/05 11:28:05;;;;;;;6.20;4.00;;;;;;;7.88;42.20;101104.74;103624;280;39683;-69
2023/04/05 11:30:52;;;;;;;6.00;3.70;;;;;;;7.91;42.61;101108.51;103625;280;40232;-73
2023/04/05 11:33:54;;;;;;;6.80;4.20;;;;;;;7.89;41.76;101108.04;103639;280;38753;-71
2023/04/05 11:36:40;;;;;;;5.50;3.80;;;;;;;7.59;41.26;101113.15;103679;280;38323;-70
2023/04/05 11:39:28;;;;;;;5.90;3.50;;;;;;;7.39;41.16;101112.02;103627;280;39433;-71
2023/04/05 11:42:04;;;;;;;5.60;3.70;;;;;;;7.28;41.29;101110.80;103657;280;38717;-71
2023/04/05 11:44:50;;;;;;;7.20;3.80;;;;;;;7.19;42.24;101115.57;103644;280;38497;-71
2023/04/05 11:47:24;;;;;;;7.20;4.70;;;;;;;7.21;42.65;101115.57;103509;280;175435;-71
2023/04/05 11:49:58;;;;;;;5.00;3.80;;;;;;;7.21;42.67;101114.86;103619;280;39428;-70
2023/04/05 11:52:31;;;;;;;7.00;3.90;;;;;;;7.19;42.64;101115.24;103653;280;38470;-71
2023/04/05 11:55:08;;;;;;;5.60;3.80;;;;;;;7.11;42.06;101119.84;103565;280;39501;-72
2023/04/05 11:57:42;;;;;;;6.80;3.90;;;;;;;7.03;42.22;101118.56;103660;280;38240;-72
2023/04/05 12:00:19;;;;;;;5.30;3.60;;;;;;;6.94;41.64;101115.35;103570;280;38788;-71